Time;durP1;ratioP1;P1;durP2;ratioP2;P2;SDS_P1;SDS_P2;PMS_P1;PMS_P2;Temp;Humidity;BMP_temperature;BMP_pressure;BME280_temperature;BME280_humidity;BME280_pressure;Samples;Min_cycle;Max_cycle;Signal;HPM_P1;HPM_P2
2023/05/05 00:01:14;;;;;;;13.23;5.93;;;10.60;99.90;;;;;;4978801;28;20046;-80
2023/05/05 00:04:00;;;;;;;13.75;5.53;;;10.50;99.90;;;;;;5010474;28;20057;-78
2023/05/05 00:06:46;;;;;;;11.35;5.38;;;10.50;99.90;;;;;;4979124;28;20042;-79
2023/05/05 00:09:35;;;;;;;13.05;5.63;;;10.50;99.90;;;;;;4996571;28;20046;-79
2023/05/05 00:12:21;;;;;;;16.80;5.53;;;10.50;99.90;;;;;;4980382;28;20137;-81
2023/05/05 00:15:08;;;;;;;14.85;5.85;;;10.40;99.90;;;;;;4991568;28;20056;-79
2023/05/05 00:18:00;;;;;;;14.55;6.50;;;10.40;99.90;;;;;;4992073;28;20058;-80
2023/05/05 00:20:46;;;;;;;16.73;6.28;;;10.40;99.90;;;;;;4992888;28;20414;-79
2023/05/05 00:23:33;;;;;;;13.80;5.82;;;10.40;99.90;;;;;;4992873;28;20092;-81
2023/05/05 00:26:20;;;;;;;14.38;6.00;;;10.40;99.90;;;;;;4995792;28;20057;-80
2023/05/05 00:29:06;;;;;;;11.40;5.40;;;10.30;99.90;;;;;;4978414;28;20589;-77
2023/05/05 00:31:52;;;;;;;12.50;6.10;;;10.30;99.90;;;;;;4993109;28;20077;-81
2023/05/05 00:34:38;;;;;;;11.63;5.28;;;10.20;99.90;;;;;;4992409;28;20395;-78
2023/05/05 00:37:27;;;;;;;13.63;5.45;;;10.20;99.90;;;;;;5009599;28;20101;-78
2023/05/05 00:40:13;;;;;;;13.68;6.53;;;10.20;99.90;;;;;;4994590;28;20434;-79
2023/05/05 00:42:59;;;;;;;12.13;5.53;;;10.20;99.90;;;;;;5008179;28;20325;-80
2023/05/05 00:45:46;;;;;;;12.27;5.50;;;10.10;99.90;;;;;;4997073;28;20062;-79
2023/05/05 00:48:32;;;;;;;19.55;6.85;;;10.20;99.90;;;;;;4996181;28;20050;-79
2023/05/05 00:51:19;;;;;;;15.85;6.30;;;10.10;99.90;;;;;;4995476;28;20100;-81
2023/05/05 00:54:06;;;;;;;14.50;5.68;;;10.00;99.90;;;;;;4995865;28;20050;-78
2023/05/05 00:56:55;;;;;;;14.57;5.50;;;10.10;99.90;;;;;;5006777;28;20089;-79
2023/05/05 00:59:42;;;;;;;20.95;6.22;;;10.10;99.90;;;;;;5011425;28;20054;-79
2023/05/05 01:02:29;;;;;;;12.90;6.05;;;10.10;99.90;;;;;;5012948;28;20060;-80
2023/05/05 01:05:17;;;;;;;13.40;5.57;;;10.10;99.90;;;;;;4981889;28;20560;-80
2023/05/05 01:08:41;;;;;;;11.88;5.32;;;10.10;99.90;;;;;;4994753;28;20057;-79
2023/05/05 01:11:49;;;;;;;16.17;6.65;;;10.10;99.90;;;;;;4898165;29;20771;-80
2023/05/05 01:14:39;;;;;;;14.43;5.78;;;10.10;99.90;;;;;;4898175;29;20500;-81
2023/05/05 01:17:41;;;;;;;18.02;6.47;;;10.10;99.90;;;;;;5013287;28;20112;-83
2023/05/05 01:20:41;;;;;;;15.48;5.97;;;10.10;99.90;;;;;;4998561;28;20042;-79
2023/05/05 01:23:59;;;;;;;19.20;5.60;;;10.10;99.90;;;;;;4993764;28;20096;-78
2023/05/05 01:27:13;;;;;;;14.75;5.47;;;10.10;99.90;;;;;;4994814;28;20064;-79
2023/05/05 01:30:38;;;;;;;14.93;5.30;;;10.00;99.90;;;;;;4995220;28;20104;-83
2023/05/05 01:33:31;;;;;;;12.95;6.28;;;10.00;99.90;;;;;;4995607;28;20115;-81
2023/05/05 01:36:24;;;;;;;;;;;10.00;99.90;;;;;;4994953;28;20076;-79
2023/05/05 01:39:17;;;;;;;11.57;5.97;;;9.90;99.90;;;;;;4990510;28;19925;-78
2023/05/05 01:42:13;;;;;;;15.93;5.82;;;10.00;99.90;;;;;;5013481;28;20098;-80
2023/05/05 01:45:02;;;;;;;13.82;5.40;;;9.90;99.90;;;;;;4995061;28;20104;-81
2023/05/05 01:47:49;;;;;;;15.05;5.75;;;9.90;99.90;;;;;;4994551;28;20141;-81
2023/05/05 01:50:36;;;;;;;19.63;5.97;;;9.90;99.90;;;;;;4980196;28;20068;-79
2023/05/05 01:53:24;;;;;;;12.02;5.47;;;9.90;99.90;;;;;;4979724;28;20061;-79
2023/05/05 01:56:11;;;;;;;15.00;5.68;;;9.90;99.90;;;;;;4997598;28;20049;-80
2023/05/05 01:59:00;;;;;;;15.60;5.25;;;10.00;99.90;;;;;;4994410;28;20096;-78
2023/05/05 02:01:49;;;;;;;11.90;5.38;;;10.00;99.90;;;;;;4994374;28;20053;-80
2023/05/05 02:04:37;;;;;;;11.18;5.40;;;10.00;99.90;;;;;;5010654;28;20060;-78
2023/05/05 02:07:24;;;;;;;14.35;5.45;;;10.00;99.90;;;;;;4980505;28;20058;-80
2023/05/05 02:10:12;;;;;;;15.10;5.47;;;10.00;99.90;;;;;;4994338;28;20133;-78
2023/05/05 02:13:01;;;;;;;23.95;7.28;;;10.10;99.90;;;;;;4988370;28;20104;-79
2023/05/05 02:15:49;;;;;;;13.50;6.18;;;10.10;99.90;;;;;;4981515;28;20054;-79
2023/05/05 02:18:37;;;;;;;18.25;5.85;;;10.10;99.90;;;;;;4980209;28;20100;-81
2023/05/05 02:21:23;;;;;;;10.57;5.15;;;10.10;99.90;;;;;;4994492;28;20089;-80
2023/05/05 02:24:10;;;;;;;10.13;5.93;;;10.20;99.90;;;;;;4994660;28;20050;-80
2023/05/05 02:26:58;;;;;;;13.88;5.85;;;10.20;99.90;;;;;;4993732;28;20076;-82
2023/05/05 02:29:51;;;;;;;14.68;5.88;;;10.20;99.90;;;;;;4993643;28;20509;-79
2023/05/05 02:32:54;;;;;;;13.95;6.63;;;10.20;99.90;;;;;;4978794;28;20054;-82
2023/05/05 02:35:42;;;;;;;18.88;6.03;;;10.20;99.90;;;;;;4993364;28;20058;-79
2023/05/05 02:38:31;;;;;;;18.65;5.75;;;10.20;99.90;;;;;;4992412;28;20136;-80
2023/05/05 02:41:20;;;;;;;12.75;6.65;;;10.20;99.90;;;;;;4994295;28;20507;-79
2023/05/05 02:44:08;;;;;;;12.05;4.80;;;10.20;99.90;;;;;;5011028;28;20061;-80
2023/05/05 02:46:56;;;;;;;17.60;5.63;;;10.20;99.90;;;;;;4997377;28;20133;-81
2023/05/05 02:49:44;;;;;;;11.20;5.47;;;10.20;99.90;;;;;;4980252;28;20050;-82
2023/05/05 02:52:33;;;;;;;10.75;5.03;;;10.20;99.90;;;;;;5010893;28;20192;-78
2023/05/05 02:55:20;;;;;;;15.88;6.00;;;10.20;99.90;;;;;;4979821;28;20088;-77
2023/05/05 02:58:15;;;;;;;12.35;5.05;;;10.20;99.90;;;;;;4993255;28;20800;-78
2023/05/05 03:01:07;;;;;;;17.58;5.47;;;10.20;99.90;;;;;;4993466;28;20061;-78
2023/05/05 03:04:26;;;;;;;12.18;5.35;;;10.20;99.90;;;;;;4980367;28;20061;-79
2023/05/05 03:07:22;;;;;;;12.27;4.95;;;10.20;99.90;;;;;;4980749;28;20431;-79
2023/05/05 03:10:19;;;;;;;13.30;5.60;;;10.20;99.90;;;;;;5011337;28;20065;-77
2023/05/05 03:13:08;;;;;;;10.70;5.07;;;10.20;99.90;;;;;;4992342;28;20049;-78
2023/05/05 03:15:57;;;;;;;11.00;5.10;;;10.10;99.90;;;;;;4992107;28;20049;-77
2023/05/05 03:18:49;;;;;;;15.35;5.97;;;10.10;99.90;;;;;;5010302;28;20114;-78
2023/05/05 03:21:36;;;;;;;13.10;5.50;;;10.10;99.90;;;;;;4978287;28;20056;-77
2023/05/05 03:24:25;;;;;;;11.18;5.18;;;10.00;99.90;;;;;;5009002;28;20485;-79
2023/05/05 03:27:11;;;;;;;8.00;4.63;;;10.00;99.90;;;;;;4978618;28;20050;-79
2023/05/05 03:29:58;;;;;;;14.90;5.15;;;10.00;99.90;;;;;;5008799;28;20112;-78
2023/05/05 03:32:44;;;;;;;12.23;5.20;;;10.00;99.90;;;;;;4980592;28;20457;-78
2023/05/05 03:35:30;;;;;;;12.98;5.18;;;10.00;99.90;;;;;;4979133;28;20060;-78
2023/05/05 03:38:16;;;;;;;11.88;5.10;;;10.00;99.90;;;;;;5009846;28;20050;-78
2023/05/05 03:41:02;;;;;;;12.25;4.93;;;10.00;99.90;;;;;;4993977;28;20049;-79
2023/05/05 03:43:50;;;;;;;12.18;5.68;;;10.00;99.90;;;;;;4994734;28;20042;-79
2023/05/05 03:46:36;;;;;;;12.98;4.85;;;10.00;99.90;;;;;;4994052;28;20137;-78
2023/05/05 03:49:22;;;;;;;18.45;5.50;;;10.10;99.90;;;;;;4991863;28;20153;-79
2023/05/05 03:52:08;;;;;;;14.05;5.35;;;10.10;99.90;;;;;;4993204;28;20062;-78
2023/05/05 03:54:55;;;;;;;16.15;5.40;;;10.10;99.90;;;;;;4978546;28;20057;-76
2023/05/05 03:57:41;;;;;;;11.65;5.13;;;10.10;99.90;;;;;;4993576;28;20065;-77
2023/05/05 04:00:30;;;;;;;13.65;4.82;;;10.00;99.90;;;;;;5010422;28;20577;-78
2023/05/05 04:03:16;;;;;;;11.38;5.03;;;10.10;99.90;;;;;;4992487;28;20671;-79
2023/05/05 04:06:04;;;;;;;12.02;6.10;;;10.10;99.90;;;;;;4978761;28;20247;-79
2023/05/05 04:08:50;;;;;;;14.82;5.38;;;10.10;99.90;;;;;;4992516;28;20503;-81
2023/05/05 04:11:41;;;;;;;12.65;4.70;;;10.10;99.90;;;;;;4992448;28;20050;-78
2023/05/05 04:14:27;;;;;;;10.52;5.57;;;10.20;99.90;;;;;;4995461;28;20509;-78
2023/05/05 04:17:13;;;;;;;9.15;4.78;;;10.20;99.90;;;;;;4996690;28;20152;-78
2023/05/05 04:19:59;;;;;;;14.93;4.95;;;10.20;99.90;;;;;;4983554;28;20064;-78
2023/05/05 04:22:46;;;;;;;12.43;4.40;;;10.20;99.90;;;;;;4997276;28;20064;-80
2023/05/05 04:25:32;;;;;;;13.25;4.97;;;10.20;99.90;;;;;;5014142;28;20416;-76
2023/05/05 04:28:19;;;;;;;13.15;5.50;;;10.20;99.90;;;;;;4998355;28;20050;-78
2023/05/05 04:31:09;;;;;;;12.50;5.32;;;10.20;99.90;;;;;;5002012;28;20046;-77
2023/05/05 04:33:55;;;;;;;11.20;5.45;;;10.20;99.90;;;;;;4998192;28;20042;-77
2023/05/05 04:36:41;;;;;;;12.63;5.32;;;10.20;99.90;;;;;;5021954;28;20054;-78
2023/05/05 04:39:27;;;;;;;11.43;5.50;;;10.20;99.90;;;;;;5023047;28;20050;-78
2023/05/05 04:42:13;;;;;;;13.10;5.97;;;10.10;99.90;;;;;;5031657;28;20054;-78
2023/05/05 04:44:59;;;;;;;12.68;5.68;;;10.10;99.90;;;;;;4996494;28;20054;-79
2023/05/05 04:47:45;;;;;;;14.38;6.50;;;10.10;99.90;;;;;;4994009;28;20053;-80
2023/05/05 04:50:31;;;;;;;17.98;6.50;;;10.00;99.90;;;;;;4981373;28;20460;-79
2023/05/05 04:53:18;;;;;;;14.00;6.10;;;10.00;99.90;;;;;;4993842;28;20054;-79
2023/05/05 04:56:10;;;;;;;18.02;8.45;;;9.90;99.90;;;;;;5013426;28;20093;-79
2023/05/05 04:58:56;;;;;;;19.90;6.93;;;9.90;99.90;;;;;;5012140;28;20528;-78
2023/05/05 05:01:43;;;;;;;18.65;6.28;;;9.80;99.90;;;;;;4980265;28;20041;-78
2023/05/05 05:04:29;;;;;;;14.07;5.97;;;9.80;99.90;;;;;;5013188;28;20410;-78
2023/05/05 05:07:16;;;;;;;14.23;6.90;;;9.80;99.90;;;;;;4983291;28;20050;-79
2023/05/05 05:10:02;;;;;;;13.90;7.20;;;9.80;99.90;;;;;;4998786;28;20046;-79
2023/05/05 05:12:54;;;;;;;16.55;6.68;;;9.80;99.90;;;;;;5013288;28;20054;-78
2023/05/05 05:15:42;;;;;;;20.95;6.93;;;9.70;99.90;;;;;;4981322;28;20516;-78
2023/05/05 05:18:28;;;;;;;16.75;6.68;;;9.80;99.90;;;;;;4983163;28;20062;-79
2023/05/05 05:21:14;;;;;;;13.80;6.30;;;9.70;99.90;;;;;;4994092;28;20060;-78
2023/05/05 05:24:00;;;;;;;13.63;6.65;;;9.70;99.90;;;;;;4995591;28;20065;-77
2023/05/05 05:26:47;;;;;;;16.48;6.60;;;9.70;99.90;;;;;;4994966;28;20542;-78
2023/05/05 05:29:35;;;;;;;14.05;6.70;;;9.70;99.90;;;;;;5012762;28;20526;-79
2023/05/05 05:32:21;;;;;;;9.73;6.50;;;9.70;99.90;;;;;;5013310;28;20053;-79
2023/05/05 05:35:07;;;;;;;13.05;6.32;;;9.70;99.90;;;;;;5012843;28;20167;-79
2023/05/05 05:37:53;;;;;;;13.68;6.00;;;9.60;99.90;;;;;;4988005;28;20052;-79
2023/05/05 05:40:40;;;;;;;12.05;6.45;;;9.60;99.90;;;;;;4995470;28;20058;-80
2023/05/05 05:43:27;;;;;;;15.27;6.55;;;9.50;99.90;;;;;;5011611;28;20103;-80
2023/05/05 05:46:13;;;;;;;14.80;6.82;;;9.60;99.90;;;;;;4994373;28;20062;-79
2023/05/05 05:48:59;;;;;;;15.25;6.70;;;9.70;99.90;;;;;;4995177;28;20049;-80
2023/05/05 05:51:45;;;;;;;17.73;5.93;;;9.80;99.90;;;;;;4980896;28;20512;-80
2023/05/05 05:54:33;;;;;;;12.57;6.70;;;9.90;99.90;;;;;;4981810;28;20473;-79
2023/05/05 05:57:23;;;;;;;19.45;7.03;;;9.90;99.90;;;;;;4994758;28;20398;-82
2023/05/05 06:00:10;;;;;;;14.85;6.65;;;10.00;99.90;;;;;;4995091;28;20049;-78
2023/05/05 06:03:00;;;;;;;14.68;7.10;;;10.00;99.90;;;;;;4981297;28;20045;-80
2023/05/05 06:05:46;;;;;;;10.35;6.40;;;10.10;99.90;;;;;;4993939;28;20383;-79
2023/05/05 06:08:33;;;;;;;11.13;6.70;;;10.20;99.90;;;;;;4993586;28;20145;-80
2023/05/05 06:11:21;;;;;;;14.88;7.40;;;10.20;99.90;;;;;;4980686;28;20058;-81
2023/05/05 06:14:09;;;;;;;11.88;6.60;;;10.20;99.90;;;;;;4994065;28;20092;-78
2023/05/05 06:16:55;;;;;;;11.95;6.72;;;10.20;99.90;;;;;;4992433;28;20137;-80
2023/05/05 06:19:42;;;;;;;13.65;5.95;;;10.30;99.90;;;;;;4995119;28;20069;-78
2023/05/05 06:22:28;;;;;;;13.60;6.43;;;10.30;99.90;;;;;;4993006;28;20140;-77
2023/05/05 06:25:14;;;;;;;16.02;7.43;;;10.40;99.90;;;;;;4993773;28;20104;-82
2023/05/05 06:28:00;;;;;;;13.88;7.03;;;10.50;99.90;;;;;;4993009;28;20065;-81
2023/05/05 06:30:47;;;;;;;12.07;6.93;;;10.50;99.90;;;;;;4981022;28;20085;-80
2023/05/05 06:33:33;;;;;;;11.38;6.80;;;10.60;99.90;;;;;;4994186;28;20053;-77
2023/05/05 06:36:19;;;;;;;12.10;7.13;;;10.80;99.90;;;;;;4981464;28;20050;-79
2023/05/05 06:39:05;;;;;;;13.70;6.60;;;11.00;99.90;;;;;;5011420;28;20548;-82
2023/05/05 06:41:51;;;;;;;11.85;6.95;;;11.30;99.90;;;;;;4980192;28;20077;-81
2023/05/05 06:44:37;;;;;;;11.10;6.13;;;11.50;99.90;;;;;;4994114;28;20057;-84
2023/05/05 06:47:23;;;;;;;19.45;7.18;;;11.50;99.90;;;;;;4966770;28;20064;-81
2023/05/05 06:50:10;;;;;;;12.45;6.22;;;11.50;99.90;;;;;;5011405;28;20049;-82
2023/05/05 06:52:56;;;;;;;14.35;7.28;;;11.60;99.90;;;;;;4994029;28;20065;-81
2023/05/05 06:55:45;;;;;;;13.73;6.82;;;11.70;99.90;;;;;;5011766;28;20195;-81
2023/05/05 06:58:31;;;;;;;15.57;6.85;;;12.00;99.90;;;;;;5009871;28;20065;-82
2023/05/05 07:01:17;;;;;;;14.98;7.45;;;12.20;99.90;;;;;;5007885;28;20087;-81
2023/05/05 07:04:05;;;;;;;14.57;8.23;;;12.40;99.90;;;;;;4994511;28;20054;-83
2023/05/05 07:06:51;;;;;;;10.15;6.63;;;12.70;99.90;;;;;;4992431;28;20510;-82
2023/05/05 07:09:37;;;;;;;12.27;6.43;;;12.90;99.90;;;;;;4996559;28;20132;-81
2023/05/05 07:12:24;;;;;;;13.95;7.18;;;13.10;99.90;;;;;;4980161;28;20058;-82
2023/05/05 07:15:10;;;;;;;11.15;6.55;;;13.20;99.90;;;;;;4992460;28;20104;-82
2023/05/05 07:17:56;;;;;;;9.38;6.32;;;13.20;99.90;;;;;;4993684;28;20537;-80
2023/05/05 07:20:43;;;;;;;14.93;6.25;;;13.40;99.90;;;;;;4993403;28;20054;-80
2023/05/05 07:23:29;;;;;;;16.58;6.60;;;13.50;99.90;;;;;;4994665;28;20049;-80
2023/05/05 07:26:15;;;;;;;15.38;7.57;;;13.60;99.90;;;;;;4993211;28;20064;-81
2023/05/05 07:29:04;;;;;;;12.13;6.53;;;13.70;99.90;;;;;;4993243;28;20057;-81
2023/05/05 07:31:50;;;;;;;14.73;6.75;;;14.00;99.90;;;;;;4993625;28;20064;-81
2023/05/05 07:34:36;;;;;;;11.57;6.65;;;14.20;99.90;;;;;;4993491;28;20046;-79
2023/05/05 07:37:23;;;;;;;13.02;5.93;;;14.20;99.90;;;;;;4994171;28;20054;-80
2023/05/05 07:40:09;;;;;;;10.65;5.65;;;14.40;99.90;;;;;;4979999;28;20061;-80
2023/05/05 07:42:55;;;;;;;12.18;6.55;;;14.60;99.90;;;;;;4993133;28;20091;-81
2023/05/05 07:45:41;;;;;;;13.75;6.22;;;14.80;99.90;;;;;;4994442;28;20174;-78
2023/05/05 07:48:28;;;;;;;10.00;6.30;;;14.80;99.90;;;;;;4991648;28;20077;-80
2023/05/05 07:51:18;;;;;;;15.18;7.22;;;14.90;99.90;;;;;;4995558;28;20565;-80
2023/05/05 07:54:04;;;;;;;10.25;6.00;;;15.00;99.90;;;;;;4996111;28;20096;-80
2023/05/05 07:56:50;;;;;;;14.65;7.22;;;15.30;99.90;;;;;;4996081;28;20050;-80
2023/05/05 07:59:37;;;;;;;11.98;6.10;;;15.50;99.90;;;;;;4993838;28;20054;-82
2023/05/05 08:02:24;;;;;;;13.48;6.05;;;15.80;99.90;;;;;;5010841;28;20057;-80
2023/05/05 08:05:11;;;;;;;16.23;7.40;;;15.90;99.90;;;;;;4996339;28;20054;-80
2023/05/05 08:07:58;;;;;;;12.00;7.15;;;15.90;99.90;;;;;;4969893;28;20063;-80
2023/05/05 08:10:44;;;;;;;11.00;7.05;;;16.00;99.90;;;;;;4968878;28;20142;-83
2023/05/05 08:13:30;;;;;;;11.77;6.65;;;16.10;99.90;;;;;;4952141;28;20063;-81
2023/05/05 08:16:17;;;;;;;16.83;7.38;;;16.40;99.90;;;;;;4954927;28;20062;-82
2023/05/05 08:19:03;;;;;;;11.82;7.03;;;16.50;99.90;;;;;;4955146;28;20055;-81
2023/05/05 08:21:49;;;;;;;12.90;7.07;;;16.60;99.90;;;;;;4927003;28;20066;-82
2023/05/05 08:24:36;;;;;;;11.48;6.88;;;16.80;99.90;;;;;;4968930;28;20137;-82
2023/05/05 08:27:22;;;;;;;13.90;7.45;;;16.80;99.90;;;;;;4953021;28;20547;-81
2023/05/05 08:30:09;;;;;;;10.18;7.43;;;17.00;99.90;;;;;;4969135;28;20055;-81
2023/05/05 08:32:55;;;;;;;11.63;7.28;;;17.00;99.90;;;;;;4952860;28;20093;-80
2023/05/05 08:35:42;;;;;;;11.52;7.70;;;17.10;99.90;;;;;;4954897;28;20051;-82
2023/05/05 08:38:28;;;;;;;9.82;6.88;;;17.20;99.90;;;;;;4950455;28;20058;-81
2023/05/05 08:41:17;;;;;;;17.98;8.05;;;17.50;99.90;;;;;;4978934;28;20057;-81
2023/05/05 08:44:07;;;;;;;11.57;7.28;;;17.80;99.90;;;;;;5010000;28;20054;-81
2023/05/05 08:46:55;;;;;;;14.40;7.45;;;17.80;99.90;;;;;;4992085;28;20081;-81
2023/05/05 08:49:45;;;;;;;15.57;7.43;;;18.10;99.90;;;;;;5009091;28;20065;-82
2023/05/05 08:52:45;;;;;;;21.30;8.93;;;18.20;99.90;;;;;;4991825;28;20050;-81
2023/05/05 08:55:34;;;;;;;12.93;8.13;;;18.40;99.90;;;;;;4992797;28;20058;-80
2023/05/05 08:58:22;;;;;;;12.55;8.45;;;18.50;99.90;;;;;;4979965;28;20050;-82
2023/05/05 09:01:17;;;;;;;14.40;8.35;;;18.70;99.90;;;;;;4999122;28;20125;-82
2023/05/05 09:04:03;;;;;;;10.38;7.53;;;18.90;99.90;;;;;;4977170;28;20516;-82
2023/05/05 09:06:49;;;;;;;17.00;7.32;;;19.20;99.90;;;;;;4996244;28;20050;-82
2023/05/05 09:09:38;;;;;;;15.40;8.43;;;19.40;99.90;;;;;;4995243;28;20061;-83
2023/05/05 09:12:32;;;;;;;14.80;8.35;;;19.40;99.90;;;;;;4996346;28;20082;-82
2023/05/05 09:15:18;;;;;;;16.65;8.95;;;19.50;99.90;;;;;;4981777;28;20101;-82
2023/05/05 09:18:10;;;;;;;13.40;8.88;;;19.60;99.90;;;;;;4996169;28;20053;-83
2023/05/05 09:20:58;;;;;;;13.32;8.10;;;19.70;99.90;;;;;;4994907;28;20395;-81
2023/05/05 09:24:07;;;;;;;12.57;9.27;;;19.80;99.90;;;;;;4995554;28;20410;-82
2023/05/05 09:26:54;;;;;;;14.32;8.27;;;20.10;99.90;;;;;;4987691;28;20053;-82
2023/05/05 09:29:48;;;;;;;13.70;9.23;;;20.20;99.90;;;;;;4995798;28;20413;-82
2023/05/05 09:32:48;;;;;;;13.00;8.55;;;20.40;98.30;;;;;;4994705;28;20510;-82
2023/05/05 09:35:52;;;;;;;15.00;8.30;;;20.50;98.80;;;;;;4994383;28;20073;-82
2023/05/05 09:38:38;;;;;;;17.75;9.82;;;20.50;98.20;;;;;;4982064;28;20061;-82
2023/05/05 09:41:43;;;;;;;18.35;10.15;;;20.60;99.00;;;;;;5012825;28;20061;-82
2023/05/05 09:44:35;;;;;;;15.88;10.30;;;20.50;98.40;;;;;;4995458;28;20100;-82
2023/05/05 09:47:35;;;;;;;14.88;9.32;;;20.60;99.20;;;;;;4981887;28;20053;-82
2023/05/05 09:50:22;;;;;;;16.25;9.43;;;20.30;98.60;;;;;;4994446;28;20054;-82
2023/05/05 09:53:11;;;;;;;15.25;10.23;;;20.20;99.90;;;;;;4980749;28;20061;-81
2023/05/05 09:55:59;;;;;;;14.57;9.77;;;20.20;99.90;;;;;;4994388;28;20057;-81
2023/05/05 09:58:45;;;;;;;11.93;9.27;;;20.50;99.90;;;;;;4994836;28;20156;-82
2023/05/05 10:01:31;;;;;;;11.98;9.20;;;20.80;99.90;;;;;;4981019;28;20141;-81
2023/05/05 10:04:25;;;;;;;15.68;9.63;;;20.80;99.50;;;;;;4993610;28;20054;-82
2023/05/05 10:07:22;;;;;;;13.00;9.63;;;21.00;99.30;;;;;;4981879;28;20100;-79
2023/05/05 10:10:13;;;;;;;16.15;9.90;;;21.10;98.90;;;;;;4994803;28;20136;-82
2023/05/05 10:13:00;;;;;;;16.55;9.23;;;21.00;99.20;;;;;;5011055;28;20061;-83
2023/05/05 10:15:51;;;;;;;12.77;9.27;;;21.40;99.80;;;;;;4979976;28;20140;-82
2023/05/05 10:18:46;;;;;;;14.25;10.52;;;21.80;99.20;;;;;;4998383;28;20076;-82
2023/05/05 10:21:38;;;;;;;15.48;10.23;;;21.70;98.40;;;;;;4993783;28;20516;-83
2023/05/05 10:24:36;;;;;;;19.67;11.60;;;22.20;98.70;;;;;;4997595;28;20060;-81
2023/05/05 10:27:24;;;;;;;18.80;11.25;;;22.10;98.10;;;;;;4994189;28;20069;-81
2023/05/05 10:30:31;;;;;;;18.00;11.18;;;21.90;98.20;;;;;;4994956;28;20068;-82
2023/05/05 10:33:32;;;;;;;19.48;11.65;;;21.70;97.70;;;;;;4981084;28;20132;-81
2023/05/05 10:36:19;;;;;;;17.58;11.75;;;21.40;98.50;;;;;;4993105;28;20514;-82
2023/05/05 10:39:08;;;;;;;19.05;12.93;;;21.30;99.40;;;;;;4993752;28;20096;-81
2023/05/05 10:41:54;;;;;;;19.30;12.77;;;21.50;99.20;;;;;;4992924;28;20058;-80
2023/05/05 10:44:40;;;;;;;20.63;13.45;;;21.70;99.50;;;;;;4997435;28;20080;-81
2023/05/05 10:47:27;;;;;;;21.95;14.40;;;21.60;99.30;;;;;;4992892;28;20049;-81
2023/05/05 10:50:28;;;;;;;16.73;12.63;;;22.10;99.00;;;;;;4980733;28;20046;-81
2023/05/05 10:53:50;;;;;;;19.05;14.05;;;22.50;99.70;;;;;;4993657;28;20414;-81
2023/05/05 10:56:39;;;;;;;19.45;15.07;;;22.20;98.60;;;;;;4990326;28;20060;-80
2023/05/05 10:59:38;;;;;;;25.98;18.05;;;21.80;99.20;;;;;;4979911;28;20049;-80
2023/05/05 11:02:28;;;;;;;25.02;16.58;;;21.40;99.90;;;;;;4992385;28;20061;-80
2023/05/05 11:05:21;;;;;;;23.52;16.02;;;21.40;99.90;;;;;;5010706;28;20044;-81
2023/05/05 11:08:26;;;;;;;20.40;12.55;;;21.40;98.80;;;;;;4992534;28;20064;-81
2023/05/05 11:11:12;;;;;;;16.43;12.43;;;22.10;99.40;;;;;;4993686;28;20054;-81
2023/05/05 11:14:19;;;;;;;17.10;13.35;;;22.40;98.60;;;;;;4993436;28;20325;-81
2023/05/05 11:17:45;;;;;;;19.00;13.52;;;22.50;97.40;;;;;;4993766;28;20758;-81
2023/05/05 11:20:34;;;;;;;;;;;22.20;97.50;;;;;;5011625;28;20046;-81
2023/05/05 11:23:21;;;;;;;17.35;11.73;;;21.90;97.40;;;;;;4992008;28;20020;-81
2023/05/05 11:26:08;;;;;;;21.00;13.00;;;21.90;98.80;;;;;;5009875;28;20088;-81
2023/05/05 11:29:03;;;;;;;17.00;12.70;;;22.10;98.20;;;;;;4993219;28;20056;-80
2023/05/05 11:32:12;;;;;;;18.00;14.10;;;22.30;98.00;;;;;;5009412;28;20049;-81
2023/05/05 11:35:00;;;;;;;20.88;13.15;;;22.30;97.10;;;;;;4992427;28;20061;-82
2023/05/05 11:38:02;;;;;;;20.20;14.63;;;22.90;97.10;;;;;;4985354;28;20050;-82
2023/05/05 11:40:50;;;;;;;17.55;13.88;;;23.10;95.60;;;;;;4993586;28;20148;-81
2023/05/05 11:43:36;;;;;;;17.15;13.48;;;23.30;95.30;;;;;;4993762;28;20042;-81
2023/05/05 11:46:22;;;;;;;18.80;12.27;;;23.30;95.70;;;;;;4993534;28;20064;-80
2023/05/05 11:49:08;;;;;;;18.10;13.57;;;23.10;95.70;;;;;;5009974;28;20060;-81
2023/05/05 11:51:59;;;;;;;18.00;11.35;;;23.00;95.40;;;;;;5009220;28;20053;-81
2023/05/05 11:54:47;;;;;;;21.50;12.10;;;22.80;95.60;;;;;;4995171;28;20061;-81
2023/05/05 11:57:33;;;;;;;17.42;11.68;;;22.60;95.40;;;;;;4991828;28;20089;-81
2023/05/05 12:00:29;;;;;;;13.15;8.30;;;22.40;95.50;;;;;;5010543;28;20052;-81
2023/05/05 12:03:16;;;;;;;14.45;9.98;;;21.90;95.60;;;;;;4992084;28;20418;-82
2023/05/05 12:06:06;;;;;;;13.20;8.82;;;21.30;96.30;;;;;;4986850;28;20498;-81
2023/05/05 12:08:55;;;;;;;11.13;7.80;;;21.30;97.00;;;;;;5010427;28;20052;-80
2023/05/05 12:11:52;;;;;;;13.40;8.93;;;20.90;96.90;;;;;;5007975;28;20058;-81
2023/05/05 12:14:53;;;;;;;14.93;8.68;;;20.60;97.30;;;;;;4992827;28;20140;-82
2023/05/05 12:17:43;;;;;;;16.00;9.63;;;20.50;97.90;;;;;;4992790;28;20185;-81
2023/05/05 12:20:31;;;;;;;8.88;5.13;;;20.20;98.30;;;;;;4979281;28;20069;-81
2023/05/05 12:23:17;;;;;;;9.90;4.88;;;20.30;98.50;;;;;;5007543;28;20057;-81
2023/05/05 12:26:03;;;;;;;8.45;3.97;;;20.20;98.60;;;;;;5004345;28;20050;-81
2023/05/05 12:28:49;;;;;;;8.23;2.67;;;20.30;98.50;;;;;;4991558;28;20050;-81
2023/05/05 12:31:40;;;;;;;6.32;2.45;;;20.40;98.30;;;;;;5009432;28;20054;-82
2023/05/05 12:34:26;;;;;;;9.98;3.30;;;20.40;98.50;;;;;;4992721;28;20541;-82
2023/05/05 12:37:14;;;;;;;7.43;2.58;;;20.50;98.40;;;;;;4995881;28;20136;-82
2023/05/05 12:40:00;;;;;;;5.90;1.92;;;20.40;98.30;;;;;;4996147;28;20077;-82
2023/05/05 12:42:46;;;;;;;8.70;2.88;;;20.30;98.60;;;;;;4999570;28;20054;-81
2023/05/05 12:45:32;;;;;;;9.63;4.20;;;20.00;99.60;;;;;;4996065;28;20064;-81
2023/05/05 12:48:22;;;;;;;7.72;3.53;;;19.80;99.90;;;;;;4996848;28;20060;-81
2023/05/05 12:51:22;;;;;;;8.10;3.53;;;19.50;99.90;;;;;;4996392;28;20430;-80
2023/05/05 12:54:09;;;;;;;11.60;3.75;;;19.30;99.90;;;;;;4963154;28;20141;-80
2023/05/05 12:56:57;;;;;;;7.38;3.33;;;19.10;99.90;;;;;;4976261;28;20054;-81
2023/05/05 12:59:43;;;;;;;9.75;4.68;;;19.00;99.90;;;;;;4975962;28;20062;-81
2023/05/05 13:02:33;;;;;;;9.32;3.78;;;18.90;99.90;;;;;;4961556;28;20060;-80
2023/05/05 13:05:31;;;;;;;8.65;3.90;;;18.80;99.90;;;;;;4975098;28;20157;-78
2023/05/05 13:08:17;;;;;;;8.98;4.47;;;18.50;99.90;;;;;;4993060;28;20057;-80
2023/05/05 13:11:06;;;;;;;7.60;4.07;;;18.40;99.90;;;;;;4975665;28;20049;-81
2023/05/05 13:13:52;;;;;;;12.38;5.43;;;18.40;99.90;;;;;;4961863;28;20061;-81
2023/05/05 13:16:40;;;;;;;10.10;5.07;;;18.20;99.90;;;;;;4975412;28;20093;-80
2023/05/05 13:19:26;;;;;;;11.75;5.15;;;18.10;99.90;;;;;;4975283;28;20058;-80
2023/05/05 13:22:12;;;;;;;15.63;6.28;;;17.80;99.90;;;;;;4974857;28;20057;-79
2023/05/05 13:24:58;;;;;;;11.93;5.03;;;17.70;99.90;;;;;;4994380;28;20128;-80
2023/05/05 13:27:44;;;;;;;11.75;6.10;;;17.70;99.90;;;;;;4976992;28;20073;-80
2023/05/05 13:30:30;;;;;;;12.77;6.70;;;17.60;99.90;;;;;;4974621;28;20064;-81
2023/05/05 13:33:16;;;;;;;16.45;7.72;;;17.60;99.90;;;;;;4992922;28;20125;-80
2023/05/05 13:36:03;;;;;;;17.13;7.07;;;17.60;99.90;;;;;;4993438;28;20422;-81
2023/05/05 13:38:49;;;;;;;19.02;9.00;;;17.60;99.90;;;;;;4975258;28;20046;-78
2023/05/05 13:41:35;;;;;;;22.98;9.23;;;17.50;99.90;;;;;;4974741;28;20062;-82
2023/05/05 13:44:23;;;;;;;14.98;7.75;;;17.60;99.90;;;;;;4975899;28;20050;-81
2023/05/05 13:47:09;;;;;;;17.60;9.85;;;17.40;99.90;;;;;;4977772;28;20085;-81
2023/05/05 13:49:55;;;;;;;14.68;9.20;;;17.30;99.90;;;;;;4974831;28;20115;-79
2023/05/05 13:52:41;;;;;;;15.30;8.85;;;17.20;99.90;;;;;;4973452;28;20107;-80
2023/05/05 13:55:27;;;;;;;16.55;8.07;;;17.00;99.90;;;;;;4980741;28;20112;-80
2023/05/05 13:58:13;;;;;;;16.90;8.82;;;16.90;99.90;;;;;;4993420;28;20395;-80
2023/05/05 14:01:01;;;;;;;19.13;8.50;;;16.80;99.90;;;;;;4980858;28;20147;-80
2023/05/05 14:03:47;;;;;;;17.38;8.77;;;16.60;99.90;;;;;;4981349;28;20189;-81
2023/05/05 14:06:34;;;;;;;20.85;8.88;;;16.60;99.90;;;;;;4992932;28;20120;-80
2023/05/05 14:09:21;;;;;;;15.60;8.82;;;16.50;99.90;;;;;;4980426;28;20056;-80
2023/05/05 14:12:07;;;;;;;15.68;9.75;;;16.40;99.90;;;;;;5011821;28;20099;-80
2023/05/05 14:14:53;;;;;;;20.35;8.45;;;16.40;99.90;;;;;;4994122;28;20053;-80
2023/05/05 14:17:40;;;;;;;16.60;8.93;;;16.20;99.90;;;;;;4994451;28;20062;-80
2023/05/05 14:20:26;;;;;;;18.08;9.68;;;16.20;99.90;;;;;;4968364;28;20501;-81
2023/05/05 14:23:12;;;;;;;17.13;9.85;;;16.30;99.90;;;;;;4993496;28;20137;-80
2023/05/05 14:25:58;;;;;;;20.13;9.82;;;16.30;99.90;;;;;;4993985;28;20062;-81
2023/05/05 14:28:45;;;;;;;18.33;7.82;;;16.30;99.90;;;;;;4979455;28;20054;-81
2023/05/05 14:31:35;;;;;;;17.63;9.20;;;16.20;99.90;;;;;;5011291;28;20057;-80